Terminal Aerodrome Forecast
Issued by NWS Sterling, VA

Home | Current Version | Previous Version | Text Only | Print | Product List | Glossary On
Versions: 1 2 3 4 5 6 7 8 9 10 11 12 13 14
000
FTUS41 KLWX 131700
TAFCHO
TAF
KCHO 131736Z 1318/1418 21011KT P6SM FEW050 SCT100
     FM131900 21012KT P6SM SCT050 BKN100
     FM132100 22013KT P6SM VCTS SCT050CB BKN080
     FM140600 20006KT P6SM BKN060
     FM140800 15004KT 5SM BR BKN120
     FM141300 18004KT P6SM BKN060=

USA.gov is the U.S. government's official web portal to all federal, state and local government web resources and services.